Huvudsida
METAR-TAF:

METAR-TAF

Flygplatser :

Longyearbyen, Norge

Svalbards flygplats. Longyear

latitud: 78-15N, longitud: 015-28E, höjd: 2 m

Aktuellt väderrapport

Denna rapport gjordes för 58 minuter sedan, klockan 03:50 UTC
Vind 22 kt från ost/sydost
Temperatur -5°C
Fuktighet 63%
Tryck 1032 hPa
Sikt 10 km eller mer
Få moln på en höjd av 4000 ft
lågt snödrev

METAR: ENSB 230350Z 12022KT 9999 DRSN FEW040 M05/M11 Q1032 RMK WIND 1400FT 14031KT

Tid: 05:48 (04:48 UTC)

Väderprognos

Prognos gäller från 23 kl. 00 UTC till 23 kl. 24 UTC
Vind 25 kt från syd/sydost
Sikt 10 km eller mer
Få moln på en höjd av 3000 ft
Spridda moln på en höjd av 3500 ft
Temporärt
från 23 kl. 00 UTC till 23 kl. 24 UTC
Vind 35 kt från ost/sydost
högt snödrev
Sannolikhet 30% :
Temporärt
från 23 kl. 12 UTC till 23 kl. 24 UTC
Vind 15 kt från syd i byarna ända upp till 30 kt

TAF: ENSB 2300/2324 16025KT 9999 FEW030 SCT035 TEMPO 2300/2324 12035KT BLSN PROB30 TEMPO 2312/2324 18015G30KT

Aktuella väderrapporter och prognoser från 4000 flygplatser (METAR- och TAF-rapporter).

De tillgängliga stationerna syns som gula och röda prickar på kartan.

För musen över prickarna för att se namnen på stationerna.

Klicka sedan för att få väderrapporter och prognoser.

För att ändra kartan: Klicka på de gröna knapparna med ett svart kors på för att zooma in; den gröna knappen med ett streck på för att zooma ut; eller på de gröna pilarna för angränsande kartor.


METAR-TAF: